Time;durP1;ratioP1;P1;durP2;ratioP2;P2;SDS_P1;SDS_P2;PMS_P1;PMS_P2;Temp;Humidity;BMP_temperature;BMP_pressure;BME280_temperature;BME280_humidity;BME280_pressure;Samples;Min_cycle;Max_cycle;Signal;HPM_P1;HPM_P2
2024/02/03 00:00:16;;;;;;;;;26.67;26.33;;;;;;;;5078518;28;46027;-79
2024/02/03 00:02:41;;;;;;;;;26.00;23.00;;;;;;;;5079878;27;45294;-78
2024/02/03 00:05:07;;;;;;;;;29.00;26.00;;;;;;;;5080439;27;45568;-78
2024/02/03 00:07:32;;;;;;;;;29.67;25.00;;;;;;;;5080481;27;45229;-79
2024/02/03 00:09:57;;;;;;;;;28.00;24.67;;;;;;;;5078568;28;46108;-78
2024/02/03 00:12:25;;;;;;;;;25.67;25.00;;;;;;;;5079949;27;46369;-79
2024/02/03 00:14:51;;;;;;;;;24.67;21.67;;;;;;;;5080668;27;45322;-78
2024/02/03 00:17:16;;;;;;;;;28.67;26.33;;;;;;;;5080323;28;45246;-78
2024/02/03 00:19:41;;;;;;;;;30.00;27.00;;;;;;;;5079992;27;45467;-78
2024/02/03 00:22:06;;;;;;;;;31.33;28.67;;;;;;;;5079517;28;48217;-79
2024/02/03 00:24:31;;;;;;;;;27.33;25.00;;;;;;;;5079730;27;45262;-78
2024/02/03 00:26:57;;;;;;;;;30.33;27.67;;;;;;;;5078345;28;45715;-78
2024/02/03 00:29:22;;;;;;;;;24.00;24.00;;;;;;;;5078706;28;45873;-79
2024/02/03 00:31:47;;;;;;;;;24.00;22.33;;;;;;;;5080194;27;45428;-79
2024/02/03 00:34:12;;;;;;;;;29.00;25.00;;;;;;;;5068535;28;45291;-78
2024/02/03 00:36:37;;;;;;;;;30.33;28.33;;;;;;;;5059469;28;45413;-78
2024/02/03 00:39:03;;;;;;;;;21.00;19.67;;;;;;;;5057777;28;47143;-78
2024/02/03 00:41:28;;;;;;;;;27.00;25.00;;;;;;;;5056535;28;47220;-78
2024/02/03 00:43:53;;;;;;;;;29.00;26.33;;;;;;;;5058028;28;45288;-79
2024/02/03 00:46:18;;;;;;;;;22.00;22.00;;;;;;;;5059891;28;45295;-78
2024/02/03 00:48:44;;;;;;;;;29.67;29.33;;;;;;;;5059830;28;45425;-79
2024/02/03 00:51:12;;;;;;;;;28.67;26.33;;;;;;;;5059326;28;47231;-78
2024/02/03 00:53:38;;;;;;;;;21.67;21.67;;;;;;;;5058247;28;45370;-78
2024/02/03 00:56:03;;;;;;;;;27.00;23.67;;;;;;;;5060884;28;45286;-79
2024/02/03 00:58:28;;;;;;;;;28.67;24.00;;;;;;;;5078115;28;45459;-79
2024/02/03 01:00:53;;;;;;;;;24.67;24.67;;;;;;;;5082454;28;47298;-78
2024/02/03 01:03:19;;;;;;;;;27.00;25.00;;;;;;;;5081762;28;45588;-79
2024/02/03 01:05:44;;;;;;;;;30.67;27.67;;;;;;;;5081701;28;45407;-78
2024/02/03 01:08:09;;;;;;;;;26.67;22.33;;;;;;;;5081698;28;47269;-78
2024/02/03 01:10:35;;;;;;;;;26.00;22.00;;;;;;;;5084512;27;45467;-78
2024/02/03 01:13:00;;;;;;;;;24.67;23.33;;;;;;;;5082042;28;45243;-78
2024/02/03 01:15:25;;;;;;;;;22.67;21.00;;;;;;;;5081963;28;45737;-79
2024/02/03 01:17:50;;;;;;;;;24.33;22.00;;;;;;;;5083572;27;45347;-79
2024/02/03 01:20:16;;;;;;;;;21.67;20.67;;;;;;;;5081508;28;47547;-79
2024/02/03 01:22:41;;;;;;;;;25.67;20.00;;;;;;;;5082942;27;45295;-79
2024/02/03 01:25:06;;;;;;;;;23.33;22.33;;;;;;;;5082565;27;45429;-79
2024/02/03 01:27:32;;;;;;;;;24.33;21.33;;;;;;;;5081138;28;45997;-78
2024/02/03 01:29:57;;;;;;;;;28.00;25.00;;;;;;;;5083531;28;48454;-79
2024/02/03 01:32:22;;;;;;;;;21.00;21.00;;;;;;;;5081376;28;45364;-79
2024/02/03 01:34:47;;;;;;;;;27.67;25.67;;;;;;;;5083196;27;45264;-78
2024/02/03 01:37:12;;;;;;;;;23.33;20.00;;;;;;;;5083616;27;45363;-79
2024/02/03 01:39:37;;;;;;;;;21.67;20.67;;;;;;;;5082288;27;45453;-79
2024/02/03 01:42:03;;;;;;;;;24.67;23.00;;;;;;;;5080702;28;45823;-79
2024/02/03 01:44:29;;;;;;;;;21.00;18.67;;;;;;;;5082584;27;45326;-79
2024/02/03 01:46:55;;;;;;;;;24.00;22.00;;;;;;;;5082211;27;45481;-79
2024/02/03 01:49:20;;;;;;;;;26.00;21.67;;;;;;;;5080779;28;48407;-78
2024/02/03 01:51:46;;;;;;;;;21.33;18.00;;;;;;;;5080809;28;46211;-79
2024/02/03 01:54:11;;;;;;;;;20.00;17.33;;;;;;;;5081029;28;45432;-79
2024/02/03 01:56:41;;;;;;;;;19.00;17.33;;;;;;;;5078576;28;46935;-79
2024/02/03 01:59:06;;;;;;;;;19.00;16.67;;;;;;;;5061937;28;46139;-79
2024/02/03 02:01:31;;;;;;;;;17.67;16.00;;;;;;;;5061902;28;45390;-79
2024/02/03 02:03:57;;;;;;;;;24.33;22.67;;;;;;;;5061902;28;45283;-79
2024/02/03 02:06:22;;;;;;;;;21.67;19.67;;;;;;;;5061099;28;45183;-79
2024/02/03 02:08:49;;;;;;;;;21.00;20.33;;;;;;;;5059965;28;47000;-79
2024/02/03 02:11:14;;;;;;;;;20.00;20.00;;;;;;;;5059439;28;45292;-79
2024/02/03 02:13:39;;;;;;;;;23.00;21.00;;;;;;;;5061713;28;45278;-79
2024/02/03 02:16:05;;;;;;;;;22.33;22.33;;;;;;;;5061528;28;45310;-79
2024/02/03 02:18:30;;;;;;;;;27.33;23.33;;;;;;;;5059048;28;48207;-79
2024/02/03 02:20:56;;;;;;;;;25.33;24.00;;;;;;;;5060028;28;45492;-79
2024/02/03 02:23:21;;;;;;;;;20.33;20.00;;;;;;;;5061545;28;45471;-79
2024/02/03 02:25:46;;;;;;;;;21.00;19.33;;;;;;;;5059598;28;45904;-79
2024/02/03 02:28:11;;;;;;;;;23.00;20.00;;;;;;;;5059717;28;47152;-79
2024/02/03 02:30:36;;;;;;;;;16.00;15.67;;;;;;;;5061053;28;45425;-78
2024/02/03 02:33:02;;;;;;;;;18.00;17.33;;;;;;;;5059848;28;45406;-78
2024/02/03 02:35:27;;;;;;;;;20.33;19.67;;;;;;;;5059125;28;45865;-79
2024/02/03 02:37:53;;;;;;;;;20.67;18.00;;;;;;;;5060158;28;46715;-79
2024/02/03 02:40:18;;;;;;;;;18.33;18.00;;;;;;;;5059310;28;45320;-78
2024/02/03 02:42:43;;;;;;;;;20.00;19.00;;;;;;;;5059707;28;45291;-79
2024/02/03 02:45:09;;;;;;;;;26.33;20.33;;;;;;;;5058618;28;46702;-79
2024/02/03 02:47:34;;;;;;;;;18.00;17.67;;;;;;;;5058772;28;47141;-79
2024/02/03 02:49:59;;;;;;;;;19.33;17.00;;;;;;;;5059443;28;45232;-79
2024/02/03 02:52:24;;;;;;;;;18.67;18.00;;;;;;;;5060692;28;45366;-79
2024/02/03 02:54:50;;;;;;;;;18.67;17.67;;;;;;;;5060862;28;45361;-79
2024/02/03 02:57:15;;;;;;;;;15.33;15.33;;;;;;;;5067576;28;45395;-79
2024/02/03 02:59:40;;;;;;;;;18.00;15.33;;;;;;;;5080978;27;45342;-79
2024/02/03 03:02:05;;;;;;;;;17.00;16.33;;;;;;;;5081252;27;45334;-78
2024/02/03 03:04:31;;;;;;;;;20.67;15.67;;;;;;;;5080886;27;45427;-79
2024/02/03 03:06:56;;;;;;;;;17.00;14.67;;;;;;;;5080807;27;45423;-79
2024/02/03 03:09:22;;;;;;;;;15.33;14.33;;;;;;;;5080724;28;45172;-78
2024/02/03 03:11:47;;;;;;;;;25.67;22.67;;;;;;;;5079542;28;45243;-79
2024/02/03 03:14:12;;;;;;;;;15.67;15.67;;;;;;;;5079778;28;45968;-79
2024/02/03 03:16:37;;;;;;;;;21.67;20.67;;;;;;;;5080714;28;45339;-79
2024/02/03 03:19:02;;;;;;;;;23.67;21.67;;;;;;;;5079366;28;45389;-79
2024/02/03 03:21:28;;;;;;;;;22.00;19.67;;;;;;;;5080666;27;45317;-79
2024/02/03 03:23:53;;;;;;;;;24.00;22.00;;;;;;;;5080467;27;45453;-79
2024/02/03 03:26:18;;;;;;;;;18.00;18.00;;;;;;;;5080179;27;45453;-79
2024/02/03 03:28:43;;;;;;;;;21.67;20.33;;;;;;;;5079484;28;45271;-79
2024/02/03 03:31:09;;;;;;;;;20.00;19.33;;;;;;;;5080910;28;45204;-78
2024/02/03 03:33:34;;;;;;;;;18.33;15.67;;;;;;;;5080522;27;45195;-79
2024/02/03 03:35:59;;;;;;;;;20.33;18.67;;;;;;;;5078972;28;47869;-78
2024/02/03 03:38:25;;;;;;;;;20.00;19.67;;;;;;;;5080377;28;45203;-79
2024/02/03 03:40:51;;;;;;;;;18.67;18.00;;;;;;;;5078876;27;45382;-79
2024/02/03 03:43:16;;;;;;;;;19.00;19.00;;;;;;;;5079758;27;45272;-79
2024/02/03 03:45:41;;;;;;;;;21.67;18.00;;;;;;;;5080388;27;46256;-79
2024/02/03 03:48:06;;;;;;;;;20.33;18.33;;;;;;;;5079021;28;45925;-78
2024/02/03 03:50:31;;;;;;;;;19.33;19.33;;;;;;;;5080209;27;45274;-78
2024/02/03 03:52:57;;;;;;;;;20.67;18.33;;;;;;;;5080223;27;45290;-79
2024/02/03 03:55:22;;;;;;;;;19.67;18.67;;;;;;;;5080072;27;45313;-79
2024/02/03 03:57:47;;;;;;;;;19.33;17.33;;;;;;;;5066972;28;45341;-79
2024/02/03 04:00:13;;;;;;;;;20.67;17.00;;;;;;;;5060091;28;45593;-78
2024/02/03 04:02:38;;;;;;;;;23.67;21.67;;;;;;;;5058259;28;46011;-79
2024/02/03 04:05:04;;;;;;;;;18.67;16.33;;;;;;;;5059744;28;45379;-79
2024/02/03 04:07:29;;;;;;;;;17.67;15.00;;;;;;;;5060136;28;45428;-79
2024/02/03 04:09:54;;;;;;;;;17.67;16.67;;;;;;;;5058278;28;45417;-78
2024/02/03 04:12:20;;;;;;;;;12.00;10.67;;;;;;;;5059646;28;45483;-78
2024/02/03 04:14:48;;;;;;;;;19.33;16.00;;;;;;;;5059194;28;47974;-79
2024/02/03 04:17:13;;;;;;;;;19.00;19.00;;;;;;;;5058265;28;46044;-79
2024/02/03 04:19:39;;;;;;;;;15.00;14.67;;;;;;;;5058108;28;45227;-79
2024/02/03 04:22:04;;;;;;;;;14.33;14.33;;;;;;;;5058241;28;46290;-80
2024/02/03 04:24:29;;;;;;;;;14.33;13.00;;;;;;;;5058320;28;45319;-79
2024/02/03 04:26:55;;;;;;;;;12.33;12.33;;;;;;;;5057484;28;45946;-79
2024/02/03 04:29:20;;;;;;;;;12.67;12.67;;;;;;;;5059656;28;45404;-79
2024/02/03 04:31:45;;;;;;;;;12.67;12.67;;;;;;;;5058084;28;47045;-79
2024/02/03 04:34:10;;;;;;;;;7.00;7.00;;;;;;;;5061291;28;45428;-79
2024/02/03 04:36:36;;;;;;;;;14.00;11.33;;;;;;;;5061643;28;45348;-79
2024/02/03 04:39:01;;;;;;;;;13.00;11.33;;;;;;;;5061804;28;45251;-79
2024/02/03 04:41:26;;;;;;;;;10.33;9.67;;;;;;;;5061939;28;47341;-79
2024/02/03 04:43:51;;;;;;;;;12.00;12.00;;;;;;;;5063139;28;45542;-78
2024/02/03 04:46:17;;;;;;;;;14.33;14.33;;;;;;;;5063790;28;45232;-79
2024/02/03 04:48:42;;;;;;;;;11.33;10.67;;;;;;;;5062844;28;45301;-79
2024/02/03 04:51:07;;;;;;;;;14.00;12.00;;;;;;;;5061094;28;47163;-80
2024/02/03 04:53:33;;;;;;;;;14.33;11.33;;;;;;;;5061376;28;47003;-79
2024/02/03 04:55:58;;;;;;;;;12.33;10.67;;;;;;;;5062569;28;45338;-79
2024/02/03 04:58:23;;;;;;;;;12.67;11.00;;;;;;;;5079666;28;45368;-80
2024/02/03 05:00:48;;;;;;;;;10.67;9.67;;;;;;;;5081637;28;45984;-79
2024/02/03 05:03:14;;;;;;;;;14.67;14.67;;;;;;;;5082968;27;45386;-79
2024/02/03 05:05:39;;;;;;;;;13.33;11.33;;;;;;;;5081519;28;45927;-79
2024/02/03 05:08:04;;;;;;;;;15.33;13.00;;;;;;;;5083026;27;45298;-80
2024/02/03 05:10:29;;;;;;;;;14.00;11.33;;;;;;;;5082565;28;45679;-79
2024/02/03 05:12:55;;;;;;;;;10.67;10.67;;;;;;;;5081520;28;47220;-79
2024/02/03 05:15:20;;;;;;;;;8.00;6.33;;;;;;;;5082951;27;45266;-79
2024/02/03 05:17:45;;;;;;;;;14.00;11.00;;;;;;;;5083032;27;45281;-79
2024/02/03 05:20:10;;;;;;;;;14.67;12.00;;;;;;;;5081065;28;46968;-79
2024/02/03 05:22:36;;;;;;;;;11.33;10.67;;;;;;;;5082599;27;46101;-79
2024/02/03 05:25:02;;;;;;;;;13.33;13.33;;;;;;;;5080924;28;45672;-79
2024/02/03 05:27:27;;;;;;;;;15.00;15.00;;;;;;;;5073870;28;45300;-79
2024/02/03 05:29:52;;;;;;;;;13.33;12.00;;;;;;;;5062249;28;45476;-79
2024/02/03 05:32:18;;;;;;;;;14.67;13.33;;;;;;;;5062119;28;45526;-79
2024/02/03 05:34:43;;;;;;;;;15.00;13.33;;;;;;;;5060811;28;45205;-79
2024/02/03 05:37:09;;;;;;;;;18.00;12.00;;;;;;;;5060938;28;45342;-79
2024/02/03 05:39:35;;;;;;;;;14.00;13.00;;;;;;;;5062077;28;45540;-79
2024/02/03 05:42:00;;;;;;;;;15.67;14.33;;;;;;;;5061852;28;45277;-79
2024/02/03 05:44:25;;;;;;;;;14.00;12.00;;;;;;;;5060729;28;45335;-79
2024/02/03 05:46:50;;;;;;;;;15.67;14.00;;;;;;;;5062375;28;45346;-79
2024/02/03 05:49:15;;;;;;;;;10.33;10.33;;;;;;;;5061939;28;45531;-80
2024/02/03 05:51:40;;;;;;;;;13.67;12.33;;;;;;;;5061429;28;47353;-83
2024/02/03 05:54:06;;;;;;;;;11.33;11.33;;;;;;;;5064528;28;45421;-84
2024/02/03 05:56:35;;;;;;;;;14.00;13.33;;;;;;;;5063881;28;45345;-84
2024/02/03 05:59:00;;;;;;;;;14.33;13.33;;;;;;;;5049537;28;45347;-83
2024/02/03 06:01:25;;;;;;;;;14.33;13.33;;;;;;;;5062771;28;47312;-80
2024/02/03 06:03:50;;;;;;;;;16.33;12.00;;;;;;;;5060152;28;45462;-81
2024/02/03 06:06:16;;;;;;;;;16.00;12.67;;;;;;;;5064378;28;45297;-82
2024/02/03 06:08:41;;;;;;;;;16.67;14.00;;;;;;;;5063140;28;45152;-81
2024/02/03 06:11:06;;;;;;;;;12.00;10.33;;;;;;;;5062500;28;48264;-82
2024/02/03 06:13:31;;;;;;;;;14.67;14.67;;;;;;;;5063932;28;45263;-81
2024/02/03 06:15:57;;;;;;;;;12.33;12.00;;;;;;;;5074906;28;45175;-82
2024/02/03 06:18:22;;;;;;;;;13.33;11.67;;;;;;;;5074480;28;47018;-81
2024/02/03 06:20:47;;;;;;;;;14.67;12.33;;;;;;;;5074043;28;47302;-81
2024/02/03 06:23:12;;;;;;;;;11.00;9.67;;;;;;;;5070788;28;45224;-81
2024/02/03 06:25:38;;;;;;;;;16.00;14.67;;;;;;;;5078385;28;45266;-81
2024/02/03 06:28:03;;;;;;;;;13.33;9.67;;;;;;;;5078666;28;45203;-81
2024/02/03 06:30:30;;;;;;;;;11.33;10.67;;;;;;;;5072417;28;46648;-83
2024/02/03 06:32:55;;;;;;;;;13.67;11.67;;;;;;;;5070044;28;45225;-81
2024/02/03 06:35:20;;;;;;;;;13.00;11.00;;;;;;;;5069735;28;45399;-81
2024/02/03 06:37:45;;;;;;;;;8.00;8.00;;;;;;;;5065618;28;45290;-80
2024/02/03 06:40:11;;;;;;;;;10.67;10.00;;;;;;;;5060402;28;47292;-81
2024/02/03 06:42:36;;;;;;;;;12.33;11.67;;;;;;;;5078471;28;45417;-82
2024/02/03 06:45:01;;;;;;;;;10.00;10.00;;;;;;;;5071798;28;45322;-81
2024/02/03 06:47:26;;;;;;;;;12.00;11.67;;;;;;;;5079835;28;45930;-80
2024/02/03 06:49:51;;;;;;;;;13.33;11.00;;;;;;;;5061345;28;47168;-81
2024/02/03 06:52:17;;;;;;;;;11.33;10.00;;;;;;;;5059579;28;45378;-81
2024/02/03 06:54:42;;;;;;;;;12.00;10.33;;;;;;;;5061118;28;45301;-81
2024/02/03 06:57:07;;;;;;;;;10.00;8.67;;;;;;;;5066912;28;45584;-82
2024/02/03 06:59:32;;;;;;;;;10.00;9.33;;;;;;;;5063357;27;45587;-80
2024/02/03 07:01:57;;;;;;;;;9.00;9.00;;;;;;;;5068526;28;45202;-78
2024/02/03 07:04:22;;;;;;;;;9.00;8.00;;;;;;;;5067345;28;45330;-76
2024/02/03 07:06:48;;;;;;;;;15.00;12.00;;;;;;;;5060562;28;45528;-79
2024/02/03 07:09:13;;;;;;;;;13.67;11.67;;;;;;;;5059105;28;47540;-79
2024/02/03 07:11:38;;;;;;;;;15.33;12.00;;;;;;;;5060488;28;45389;-82
2024/02/03 07:14:03;;;;;;;;;16.00;12.67;;;;;;;;5061567;28;45298;-80
2024/02/03 07:16:29;;;;;;;;;13.33;11.00;;;;;;;;5059247;28;46473;-84
2024/02/03 07:18:54;;;;;;;;;9.67;9.67;;;;;;;;5059036;28;47178;-78
2024/02/03 07:21:19;;;;;;;;;10.33;10.33;;;;;;;;5059959;28;45393;-77
2024/02/03 07:23:44;;;;;;;;;12.00;11.00;;;;;;;;5060109;28;45332;-76
2024/02/03 07:26:10;;;;;;;;;14.00;11.67;;;;;;;;5058818;28;45531;-77
2024/02/03 07:28:35;;;;;;;;;15.00;10.00;;;;;;;;5046345;28;45554;-77
2024/02/03 07:31:00;;;;;;;;;10.33;10.33;;;;;;;;5057807;28;45408;-76
2024/02/03 07:33:26;;;;;;;;;14.33;12.67;;;;;;;;5059381;28;45264;-77
2024/02/03 07:35:51;;;;;;;;;12.67;10.33;;;;;;;;5058100;28;46118;-77
2024/02/03 07:38:16;;;;;;;;;18.33;15.33;;;;;;;;5058915;28;45531;-77
2024/02/03 07:40:41;;;;;;;;;12.33;10.67;;;;;;;;5059342;28;45247;-76
2024/02/03 07:43:07;;;;;;;;;11.33;10.00;;;;;;;;5059330;28;45293;-76
2024/02/03 07:45:33;;;;;;;;;13.33;12.67;;;;;;;;5058884;28;45528;-77
2024/02/03 07:47:58;;;;;;;;;10.67;9.00;;;;;;;;5055604;28;46364;-76
2024/02/03 07:50:23;;;;;;;;;12.33;10.67;;;;;;;;5058612;28;45323;-75
2024/02/03 07:52:48;;;;;;;;;18.00;13.00;;;;;;;;5059324;28;45180;-75
2024/02/03 07:55:14;;;;;;;;;12.00;11.00;;;;;;;;5057898;28;47238;-75
2024/02/03 07:57:39;;;;;;;;;13.67;9.67;;;;;;;;5064136;28;47045;-75
2024/02/03 08:00:04;;;;;;;;;13.00;12.33;;;;;;;;5058853;28;45417;-77
2024/02/03 08:02:30;;;;;;;;;10.00;9.00;;;;;;;;5056744;28;45495;-78
2024/02/03 08:04:55;;;;;;;;;14.00;12.67;;;;;;;;5058511;28;45312;-80
2024/02/03 08:07:20;;;;;;;;;13.33;13.33;;;;;;;;5058718;28;45342;-80
2024/02/03 08:09:45;;;;;;;;;13.67;12.00;;;;;;;;5058635;28;45201;-79
2024/02/03 08:12:10;;;;;;;;;10.67;9.33;;;;;;;;5056130;28;45378;-78
2024/02/03 08:14:35;;;;;;;;;10.33;10.33;;;;;;;;5057332;28;45620;-78
2024/02/03 08:17:01;;;;;;;;;9.33;9.33;;;;;;;;5057630;28;48141;-78
2024/02/03 08:19:26;;;;;;;;;10.67;9.33;;;;;;;;5059369;28;45316;-78
2024/02/03 08:21:51;;;;;;;;;13.00;10.33;;;;;;;;5057182;28;45362;-78
2024/02/03 08:24:16;;;;;;;;;14.00;11.33;;;;;;;;5059362;28;45493;-79
2024/02/03 08:26:41;;;;;;;;;13.33;11.33;;;;;;;;5058427;28;45353;-78
2024/02/03 08:29:07;;;;;;;;;9.00;9.00;;;;;;;;5059136;28;45330;-79
2024/02/03 08:31:32;;;;;;;;;11.67;9.67;;;;;;;;5057665;28;45316;-79
2024/02/03 08:33:57;;;;;;;;;9.00;8.00;;;;;;;;5057486;28;45781;-78
2024/02/03 08:36:22;;;;;;;;;10.00;8.67;;;;;;;;5059097;28;45460;-78
2024/02/03 08:38:48;;;;;;;;;7.33;6.00;;;;;;;;5059033;28;45286;-78
2024/02/03 08:41:13;;;;;;;;;11.33;9.67;;;;;;;;5059233;28;45269;-79
2024/02/03 08:43:38;;;;;;;;;12.00;10.00;;;;;;;;5057884;28;46315;-78
2024/02/03 08:46:03;;;;;;;;;9.33;8.33;;;;;;;;5059125;28;45770;-79
2024/02/03 08:48:29;;;;;;;;;8.00;7.00;;;;;;;;5059213;28;45286;-79
2024/02/03 08:50:54;;;;;;;;;10.00;9.00;;;;;;;;5057766;28;45735;-78
2024/02/03 08:53:19;;;;;;;;;11.33;11.33;;;;;;;;5059112;28;45252;-79
2024/02/03 08:55:45;;;;;;;;;11.67;10.33;;;;;;;;5057485;28;47370;-79
2024/02/03 08:58:10;;;;;;;;;10.00;9.00;;;;;;;;5072414;28;45326;-78
2024/02/03 09:00:35;;;;;;;;;10.00;10.00;;;;;;;;5079466;27;45259;-78
2024/02/03 09:03:00;;;;;;;;;9.67;9.33;;;;;;;;5079278;28;45553;-78
2024/02/03 09:05:26;;;;;;;;;9.33;8.00;;;;;;;;5079124;27;46541;-78
2024/02/03 09:07:52;;;;;;;;;12.33;9.00;;;;;;;;5079345;28;45346;-79
2024/02/03 09:10:17;;;;;;;;;11.00;9.33;;;;;;;;5077813;28;45380;-78
2024/02/03 09:12:42;;;;;;;;;10.33;7.67;;;;;;;;5079144;27;45500;-78
2024/02/03 09:15:08;;;;;;;;;7.00;7.00;;;;;;;;5079268;27;45512;-78
2024/02/03 09:17:33;;;;;;;;;10.67;9.33;;;;;;;;5079164;27;45201;-78
2024/02/03 09:20:01;;;;;;;;;4.67;4.33;;;;;;;;5080711;27;45311;-79
2024/02/03 09:22:27;;;;;;;;;7.00;7.00;;;;;;;;5082675;27;45357;-78
2024/02/03 09:24:52;;;;;;;;;7.00;7.00;;;;;;;;5080944;28;48394;-79
2024/02/03 09:27:18;;;;;;;;;9.00;9.00;;;;;;;;5082213;27;45329;-78
2024/02/03 09:29:43;;;;;;;;;9.67;9.33;;;;;;;;5063206;27;45393;-78
2024/02/03 09:32:08;;;;;;;;;7.67;7.67;;;;;;;;5060713;28;46472;-78
2024/02/03 09:34:34;;;;;;;;;9.00;8.00;;;;;;;;5059310;28;48418;-78
2024/02/03 09:36:59;;;;;;;;;7.00;7.00;;;;;;;;5061781;28;45299;-79
2024/02/03 09:39:24;;;;;;;;;9.67;9.00;;;;;;;;5062228;28;45272;-78
2024/02/03 09:41:49;;;;;;;;;10.67;8.67;;;;;;;;5060455;28;46274;-78
2024/02/03 09:44:15;;;;;;;;;9.33;8.67;;;;;;;;5062074;28;46149;-78
2024/02/03 09:46:40;;;;;;;;;10.00;10.00;;;;;;;;5060555;28;45268;-78
2024/02/03 09:49:06;;;;;;;;;8.33;8.33;;;;;;;;5061993;28;45350;-78
2024/02/03 09:51:33;;;;;;;;;10.00;10.00;;;;;;;;5061832;28;45567;-78
2024/02/03 09:53:59;;;;;;;;;10.33;9.33;;;;;;;;5061576;28;46225;-78
2024/02/03 09:56:25;;;;;;;;;9.00;9.00;;;;;;;;5061507;28;45168;-78
2024/02/03 09:58:50;;;;;;;;;8.33;8.33;;;;;;;;5080795;28;45310;-78
2024/02/03 10:01:15;;;;;;;;;11.00;10.33;;;;;;;;5081923;27;45308;-77
2024/02/03 10:03:46;;;;;;;;;10.67;10.67;;;;;;;;5081647;27;45596;-78
2024/02/03 10:06:11;;;;;;;;;14.00;12.33;;;;;;;;5081860;27;45485;-78
2024/02/03 10:08:37;;;;;;;;;12.00;12.00;;;;;;;;5080560;28;45349;-78
2024/02/03 10:11:02;;;;;;;;;10.67;10.67;;;;;;;;5081637;27;45195;-77
2024/02/03 10:13:27;;;;;;;;;12.00;11.67;;;;;;;;5081694;27;45314;-78
2024/02/03 10:15:59;;;;;;;;;14.67;13.67;;;;;;;;5080447;28;45979;-78
2024/02/03 10:18:25;;;;;;;;;10.00;10.00;;;;;;;;5080466;28;45365;-78
2024/02/03 10:20:50;;;;;;;;;11.33;9.67;;;;;;;;5080077;28;46963;-78
2024/02/03 10:23:15;;;;;;;;;12.00;12.00;;;;;;;;5081420;27;45457;-78
2024/02/03 10:25:40;;;;;;;;;12.33;12.33;;;;;;;;5081237;27;45310;-79
2024/02/03 10:28:06;;;;;;;;;13.00;12.00;;;;;;;;5081670;27;45359;-78
2024/02/03 10:30:35;;;;;;;;;9.00;8.67;;;;;;;;5079635;28;47146;-78
2024/02/03 10:33:02;;;;;;;;;9.33;9.33;;;;;;;;5081093;27;45308;-78
2024/02/03 10:35:27;;;;;;;;;11.33;10.33;;;;;;;;5081143;27;45437;-78
2024/02/03 10:37:53;;;;;;;;;13.00;11.33;;;;;;;;5081402;27;45384;-78
2024/02/03 10:40:18;;;;;;;;;9.00;9.00;;;;;;;;5081071;27;45353;-78
2024/02/03 10:42:45;;;;;;;;;9.67;9.33;;;;;;;;5081342;27;45333;-78
2024/02/03 10:45:11;;;;;;;;;9.67;8.67;;;;;;;;5081386;27;45341;-78
2024/02/03 10:47:37;;;;;;;;;9.67;9.67;;;;;;;;5081380;27;45230;-78
2024/02/03 10:50:04;;;;;;;;;10.00;9.00;;;;;;;;5081115;28;45231;-78
2024/02/03 10:52:30;;;;;;;;;8.00;8.00;;;;;;;;5079343;28;47390;-78
2024/02/03 10:54:56;;;;;;;;;9.67;9.00;;;;;;;;5079890;27;45345;-78
2024/02/03 10:57:23;;;;;;;;;13.00;13.00;;;;;;;;5067022;28;45406;-77
2024/02/03 10:59:48;;;;;;;;;11.33;11.33;;;;;;;;5080938;27;45307;-78
2024/02/03 11:02:14;;;;;;;;;13.33;11.00;;;;;;;;5078142;28;47221;-78
2024/02/03 11:04:39;;;;;;;;;13.67;13.00;;;;;;;;5080784;27;45303;-78
2024/02/03 11:07:04;;;;;;;;;13.00;12.00;;;;;;;;5080887;28;45444;-78
2024/02/03 11:09:30;;;;;;;;;14.67;14.00;;;;;;;;5080840;27;45294;-78
2024/02/03 11:11:56;;;;;;;;;13.00;13.00;;;;;;;;5080526;28;46476;-78
2024/02/03 11:14:23;;;;;;;;;12.00;11.67;;;;;;;;5079509;28;45254;-78
2024/02/03 11:16:53;;;;;;;;;10.00;9.67;;;;;;;;5080984;27;45297;-78
2024/02/03 11:19:22;;;;;;;;;12.67;12.67;;;;;;;;5079084;28;46349;-78
2024/02/03 11:21:54;;;;;;;;;15.67;15.67;;;;;;;;5080594;27;46514;-78
2024/02/03 11:24:19;;;;;;;;;12.33;10.33;;;;;;;;5078922;28;45360;-78
2024/02/03 11:26:53;;;;;;;;;10.00;10.00;;;;;;;;5080320;27;45282;-78
2024/02/03 11:29:18;;;;;;;;;18.33;16.33;;;;;;;;5080491;27;45364;-78
2024/02/03 11:31:43;;;;;;;;;14.33;14.33;;;;;;;;5080359;27;46183;-79
2024/02/03 11:34:13;;;;;;;;;11.33;11.33;;;;;;;;5078966;28;45396;-78
2024/02/03 11:36:38;;;;;;;;;9.33;7.33;;;;;;;;5079376;28;45322;-79
2024/02/03 11:39:03;;;;;;;;;8.67;7.00;;;;;;;;5080352;27;45300;-78
2024/02/03 11:41:28;;;;;;;;;7.67;7.33;;;;;;;;5080078;27;45346;-79
2024/02/03 11:43:54;;;;;;;;;8.00;6.00;;;;;;;;5079018;28;45302;-78
2024/02/03 11:46:19;;;;;;;;;6.00;6.00;;;;;;;;5080544;28;45207;-78
2024/02/03 11:48:45;;;;;;;;;5.00;5.00;;;;;;;;5080147;27;45364;-78
2024/02/03 11:51:11;;;;;;;;;6.00;6.00;;;;;;;;5080026;27;45386;-78
2024/02/03 11:53:36;;;;;;;;;6.00;5.00;;;;;;;;5078841;28;45364;-78
2024/02/03 11:56:01;;;;;;;;;4.00;4.00;;;;;;;;5080354;27;45652;-79
2024/02/03 11:58:27;;;;;;;;;6.33;6.33;;;;;;;;5062803;28;45864;-79
2024/02/03 12:01:05;;;;;;;;;4.67;4.67;;;;;;;;5059925;28;45410;-79
2024/02/03 12:03:30;;;;;;;;;3.00;3.00;;;;;;;;5058420;28;45410;-78
2024/02/03 12:05:56;;;;;;;;;4.67;4.67;;;;;;;;5059773;28;45310;-79
2024/02/03 12:08:21;;;;;;;;;5.00;5.00;;;;;;;;5059614;28;45338;-79
2024/02/03 12:10:46;;;;;;;;;8.00;8.00;;;;;;;;5059613;28;45520;-79
2024/02/03 12:13:11;;;;;;;;;9.67;8.33;;;;;;;;5059761;28;45211;-78
2024/02/03 12:15:36;;;;;;;;;8.33;8.00;;;;;;;;5059998;28;45348;-79
2024/02/03 12:18:02;;;;;;;;;15.33;15.00;;;;;;;;5058474;28;47321;-78
2024/02/03 12:20:27;;;;;;;;;19.67;15.67;;;;;;;;5058055;28;47348;-79
2024/02/03 12:22:55;;;;;;;;;19.33;19.33;;;;;;;;5059508;28;45259;-79
2024/02/03 12:25:20;;;;;;;;;12.67;12.67;;;;;;;;5059269;28;45413;-80
2024/02/03 12:27:46;;;;;;;;;16.00;13.00;;;;;;;;5057750;28;46113;-79
2024/02/03 12:30:17;;;;;;;;;15.00;13.00;;;;;;;;5058972;28;46455;-79
2024/02/03 12:32:43;;;;;;;;;7.00;6.00;;;;;;;;5059313;28;45304;-79
2024/02/03 12:35:08;;;;;;;;;5.00;5.00;;;;;;;;5059510;28;45273;-79
2024/02/03 12:37:33;;;;;;;;;6.67;6.67;;;;;;;;5059407;28;45520;-79
2024/02/03 12:40:00;;;;;;;;;7.00;6.00;;;;;;;;5059178;28;46514;-79
2024/02/03 12:42:25;;;;;;;;;5.00;5.00;;;;;;;;5059500;28;45196;-79
2024/02/03 12:44:50;;;;;;;;;8.00;8.00;;;;;;;;5059652;28;45333;-78
2024/02/03 12:47:16;;;;;;;;;4.00;4.00;;;;;;;;5057960;28;46198;-79
2024/02/03 12:49:41;;;;;;;;;3.00;3.00;;;;;;;;5057609;28;46983;-79
2024/02/03 12:52:06;;;;;;;;;3.67;2.33;;;;;;;;5058564;28;45265;-79
2024/02/03 12:54:31;;;;;;;;;2.00;2.00;;;;;;;;5057918;28;45259;-79
2024/02/03 12:56:56;;;;;;;;;5.00;5.00;;;;;;;;5066368;28;45496;-78
2024/02/03 12:59:21;;;;;;;;;4.33;4.33;;;;;;;;5081578;28;48756;-78
2024/02/03 13:01:47;;;;;;;;;2.00;2.00;;;;;;;;5081945;28;45288;-79
2024/02/03 13:04:12;;;;;;;;;9.67;8.00;;;;;;;;5083117;27;45258;-78
2024/02/03 13:06:37;;;;;;;;;5.33;5.00;;;;;;;;5082953;28;45342;-79
2024/02/03 13:09:02;;;;;;;;;5.33;5.00;;;;;;;;5082925;27;45318;-79
2024/02/03 13:11:27;;;;;;;;;5.00;5.00;;;;;;;;5082754;28;45350;-79
2024/02/03 13:13:53;;;;;;;;;5.00;4.00;;;;;;;;5081771;28;45430;-79
2024/02/03 13:16:18;;;;;;;;;4.00;4.00;;;;;;;;5082865;27;45317;-79
2024/02/03 13:18:43;;;;;;;;;4.33;4.33;;;;;;;;5082764;27;45358;-78
2024/02/03 13:21:08;;;;;;;;;4.67;4.67;;;;;;;;5082985;27;45429;-78
2024/02/03 13:23:33;;;;;;;;;2.00;2.00;;;;;;;;5082910;27;45345;-78
2024/02/03 13:25:59;;;;;;;;;2.00;2.00;;;;;;;;5080826;28;46084;-78
2024/02/03 13:28:24;;;;;;;;;3.00;3.00;;;;;;;;5082585;27;45313;-78
2024/02/03 13:30:49;;;;;;;;;2.00;2.00;;;;;;;;5082652;28;45341;-79
2024/02/03 13:33:14;;;;;;;;;6.00;5.00;;;;;;;;5082771;27;45294;-78
2024/02/03 13:35:40;;;;;;;;;5.33;4.00;;;;;;;;5082473;28;45294;-78
2024/02/03 13:38:05;;;;;;;;;2.33;2.33;;;;;;;;5081200;28;47006;-78
2024/02/03 13:40:31;;;;;;;;;5.00;5.00;;;;;;;;5080896;28;45319;-78
2024/02/03 13:42:56;;;;;;;;;5.33;5.33;;;;;;;;5082511;27;45239;-79
2024/02/03 13:45:21;;;;;;;;;4.33;4.33;;;;;;;;5081018;28;46033;-79
2024/02/03 13:47:49;;;;;;;;;7.00;7.00;;;;;;;;5080977;28;48161;-78
2024/02/03 13:50:14;;;;;;;;;5.00;5.00;;;;;;;;5082268;27;45311;-78
2024/02/03 13:52:39;;;;;;;;;6.00;6.00;;;;;;;;5080745;28;45303;-78
2024/02/03 13:55:05;;;;;;;;;14.00;11.00;;;;;;;;5080678;28;47221;-78
2024/02/03 13:57:30;;;;;;;;;13.00;13.00;;;;;;;;5072850;27;46195;-78
2024/02/03 13:59:55;;;;;;;;;11.67;10.67;;;;;;;;5060321;28;45331;-78
2024/02/03 14:02:20;;;;;;;;;7.67;7.67;;;;;;;;5061845;28;45358;-78
2024/02/03 14:04:46;;;;;;;;;8.00;8.00;;;;;;;;5061593;28;45463;-78
2024/02/03 14:07:11;;;;;;;;;8.00;8.00;;;;;;;;5060174;28;45603;-79
2024/02/03 14:09:36;;;;;;;;;4.67;4.67;;;;;;;;5060347;28;45724;-78
2024/02/03 14:12:03;;;;;;;;;7.00;7.00;;;;;;;;5061557;28;45293;-75